createdAt,value
2023-01-17T00:02:21.590Z,10.25
2023-01-17T00:05:08.152Z,10.97
2023-01-17T00:07:54.577Z,10.14
2023-01-17T00:10:25.169Z,9.18
2023-01-17T00:12:58.777Z,8.53
2023-01-17T00:15:28.370Z,8.05
2023-01-17T00:17:57.659Z,7.69
2023-01-17T00:20:46.157Z,7.38
2023-01-17T00:23:34.712Z,7.59
2023-01-17T00:26:05.544Z,9.14
2023-01-17T00:28:38.549Z,10.34
2023-01-17T00:31:08.661Z,10.87
2023-01-17T00:33:36.806Z,10.17
2023-01-17T00:36:05.172Z,9.37
2023-01-17T00:38:35.482Z,8.76
2023-01-17T00:41:06.464Z,8.28
2023-01-17T00:43:53.287Z,7.93
2023-01-17T00:46:39.963Z,7.59
2023-01-17T00:49:27.091Z,7.30
2023-01-17T00:52:13.537Z,7.41
2023-01-17T00:55:00.281Z,9.02
2023-01-17T00:57:46.691Z,10.38
2023-01-17T01:00:33.881Z,10.69
2023-01-17T01:03:27.199Z,9.79
2023-01-17T01:06:13.314Z,8.96
2023-01-17T01:08:59.799Z,8.37
2023-01-17T01:11:46.168Z,7.94
2023-01-17T01:14:32.836Z,7.60
2023-01-17T01:17:19.184Z,7.30
2023-01-17T01:20:05.988Z,7.01
2023-01-17T01:22:52.501Z,7.19
2023-01-17T01:25:39.120Z,8.63
2023-01-17T01:28:29.128Z,9.93
2023-01-17T01:31:21.876Z,10.48
2023-01-17T01:33:53.368Z,9.62
2023-01-17T01:36:21.538Z,8.83
2023-01-17T01:38:50.320Z,8.26
2023-01-17T01:41:18.200Z,7.83
2023-01-17T01:43:48.927Z,7.49
2023-01-17T01:46:31.098Z,7.22
2023-01-17T01:49:11.121Z,6.95
2023-01-17T01:51:41.846Z,6.72
2023-01-17T01:54:19.099Z,6.52
2023-01-17T01:56:48.088Z,6.74
2023-01-17T01:59:16.840Z,8.20
2023-01-17T02:01:44.714Z,9.62
2023-01-17T02:04:13.137Z,10.34
2023-01-17T02:06:49.053Z,9.73
2023-01-17T02:09:18.139Z,8.89
2023-01-17T02:11:46.998Z,8.33
2023-01-17T02:14:16.996Z,7.92
2023-01-17T02:16:54.548Z,7.61
2023-01-17T02:19:54.471Z,7.37
2023-01-17T02:22:37.633Z,7.12
2023-01-17T02:25:34.909Z,6.91
2023-01-17T02:28:27.619Z,6.65
2023-01-17T02:30:57.109Z,6.46
2023-01-17T02:33:30.991Z,6.31
2023-01-17T02:36:20.367Z,6.18
2023-01-17T02:38:56.433Z,6.05
2023-01-17T02:41:41.067Z,6.28
2023-01-17T02:44:10.219Z,7.96
2023-01-17T02:46:53.018Z,9.47
2023-01-17T02:49:23.868Z,10.09
2023-01-17T02:52:07.831Z,9.27
2023-01-17T02:55:03.093Z,8.35
2023-01-17T02:57:54.644Z,7.66
2023-01-17T03:00:31.614Z,7.16
2023-01-17T03:03:02.150Z,6.83
2023-01-17T03:05:52.989Z,6.56
2023-01-17T03:08:21.359Z,6.34
2023-01-17T03:10:49.280Z,6.20
2023-01-17T03:13:17.106Z,6.09
2023-01-17T03:15:45.378Z,5.99
2023-01-17T03:18:15.068Z,5.89
2023-01-17T03:20:42.932Z,5.79
2023-01-17T03:23:10.746Z,6.03
2023-01-17T03:25:38.478Z,7.58
2023-01-17T03:28:06.446Z,9.14
2023-01-17T03:30:34.304Z,9.97
2023-01-17T03:33:02.279Z,9.33
2023-01-17T03:35:30.130Z,8.50
2023-01-17T03:37:57.930Z,7.87
2023-01-17T03:40:25.687Z,7.43
2023-01-17T03:42:53.431Z,7.11
2023-01-17T03:45:21.156Z,6.84
2023-01-17T03:47:48.886Z,6.63
2023-01-17T03:50:16.785Z,6.44
2023-01-17T03:52:44.589Z,6.27
2023-01-17T03:55:12.343Z,6.14
2023-01-17T03:57:40.143Z,6.02
2023-01-17T04:00:08.582Z,5.90
2023-01-17T04:02:36.492Z,5.77
2023-01-17T04:05:05.225Z,5.93
2023-01-17T04:07:33.220Z,7.32
2023-01-17T04:10:01.061Z,8.70
2023-01-17T04:12:28.823Z,9.37
2023-01-17T04:14:56.558Z,8.78
2023-01-17T04:17:24.812Z,7.98
2023-01-17T04:19:52.808Z,7.40
2023-01-17T04:22:20.586Z,6.97
2023-01-17T04:24:48.661Z,6.64
2023-01-17T04:27:16.455Z,6.38
2023-01-17T04:29:46.595Z,6.12
2023-01-17T04:32:14.910Z,5.88
2023-01-17T04:34:42.666Z,5.70
2023-01-17T04:37:10.370Z,5.53
2023-01-17T04:39:38.097Z,5.39
2023-01-17T04:42:05.979Z,5.26
2023-01-17T04:44:33.712Z,5.46
2023-01-17T04:47:03.021Z,6.99
2023-01-17T04:49:31.262Z,8.67
2023-01-17T04:51:59.621Z,9.46
2023-01-17T04:54:27.426Z,8.82
2023-01-17T04:56:55.253Z,8.03
2023-01-17T04:59:23.061Z,7.47
2023-01-17T05:01:51.056Z,7.07
2023-01-17T05:04:18.907Z,6.76
2023-01-17T05:06:46.668Z,6.51
2023-01-17T05:09:14.809Z,6.29
2023-01-17T05:11:42.713Z,6.13
2023-01-17T05:14:10.951Z,6.00
2023-01-17T05:16:38.871Z,5.89
2023-01-17T05:19:06.896Z,5.78
2023-01-17T05:21:34.841Z,5.69
2023-01-17T05:24:02.590Z,5.62
2023-01-17T05:26:30.463Z,5.55
2023-01-17T05:28:58.300Z,5.49
2023-01-17T05:31:26.119Z,5.45
2023-01-17T05:33:53.877Z,5.42
2023-01-17T05:36:21.644Z,5.42
2023-01-17T05:38:49.349Z,5.44
2023-01-17T05:41:17.227Z,5.45
2023-01-17T05:43:45.002Z,5.46
2023-01-17T05:46:12.815Z,5.47
2023-01-17T05:48:40.833Z,5.47
2023-01-17T05:51:08.607Z,5.48
2023-01-17T05:53:36.449Z,5.72
2023-01-17T05:56:04.466Z,7.11
2023-01-17T05:58:32.280Z,8.61
2023-01-17T06:01:00.140Z,9.13
2023-01-17T06:03:28.068Z,8.47
2023-01-17T06:05:55.808Z,7.74
2023-01-17T06:08:23.664Z,7.22
2023-01-17T06:10:51.399Z,6.86
2023-01-17T06:13:22.073Z,6.59
2023-01-17T06:15:49.961Z,6.39
2023-01-17T06:18:18.251Z,6.24
2023-01-17T06:20:46.121Z,6.14
2023-01-17T06:23:14.847Z,6.07
2023-01-17T06:25:44.546Z,6.01
2023-01-17T06:28:14.342Z,5.95
2023-01-17T06:30:43.830Z,5.88
2023-01-17T06:33:12.447Z,5.82
2023-01-17T06:35:41.078Z,5.80
2023-01-17T06:38:09.922Z,5.78
2023-01-17T06:40:37.741Z,5.75
2023-01-17T06:43:05.682Z,5.74
2023-01-17T06:45:34.997Z,5.74
2023-01-17T06:48:04.158Z,5.73
2023-01-17T06:50:32.719Z,5.74
2023-01-17T06:53:05.438Z,5.72
2023-01-17T06:55:34.329Z,5.72
2023-01-17T06:58:05.246Z,5.72
2023-01-17T07:00:35.158Z,5.73
2023-01-17T07:03:03.224Z,5.74
2023-01-17T07:05:31.192Z,5.76
2023-01-17T07:07:59.067Z,5.78
2023-01-17T07:10:26.822Z,5.81
2023-01-17T07:12:59.708Z,5.83
2023-01-17T07:15:27.549Z,5.84
2023-01-17T07:17:55.391Z,5.87
2023-01-17T07:20:23.189Z,5.87
2023-01-17T07:22:50.990Z,5.87
2023-01-17T07:25:20.042Z,5.87
2023-01-17T07:27:47.900Z,5.88
2023-01-17T07:30:16.133Z,5.87
2023-01-17T07:32:44.084Z,5.86
2023-01-17T07:35:11.814Z,5.86
2023-01-17T07:37:39.623Z,5.86
2023-01-17T07:40:08.092Z,5.85
2023-01-17T07:42:35.821Z,5.84
2023-01-17T07:45:03.897Z,5.83
2023-01-17T07:47:33.965Z,5.80
2023-01-17T07:50:02.929Z,5.77
2023-01-17T07:52:30.969Z,5.73
2023-01-17T07:54:58.765Z,5.70
2023-01-17T07:57:26.588Z,5.69
2023-01-17T07:59:54.400Z,5.68
2023-01-17T08:02:23.394Z,5.69
2023-01-17T08:04:51.541Z,5.73
2023-01-17T08:07:19.320Z,5.77
2023-01-17T08:09:49.842Z,5.84
2023-01-17T08:12:17.929Z,5.91
2023-01-17T08:14:45.722Z,5.97
2023-01-17T08:17:16.135Z,6.06
2023-01-17T08:19:44.893Z,6.16
2023-01-17T08:22:13.007Z,6.28
2023-01-17T08:24:41.864Z,6.41
2023-01-17T08:27:09.967Z,6.55
2023-01-17T08:29:38.293Z,6.74
2023-01-17T08:32:06.788Z,6.92
2023-01-17T08:34:34.551Z,7.08
2023-01-17T08:37:02.278Z,7.17
2023-01-17T08:39:30.018Z,7.18
2023-01-17T08:41:57.826Z,7.11
2023-01-17T08:44:25.632Z,7.07
2023-01-17T08:46:53.584Z,7.04
2023-01-17T08:49:21.344Z,6.98
2023-01-17T08:51:49.073Z,6.93
2023-01-17T08:54:17.243Z,6.92
2023-01-17T08:56:47.011Z,6.92
2023-01-17T08:59:15.172Z,6.91
2023-01-17T14:02:38.822Z,12.37
2023-01-17T14:05:21.334Z,11.95
2023-01-17T14:07:58.347Z,11.43
2023-01-17T14:10:32.417Z,10.96
2023-01-17T14:13:00.988Z,10.55
2023-01-17T14:15:31.222Z,10.26
2023-01-17T14:18:01.137Z,10.07
2023-01-17T14:20:35.038Z,9.90
2023-01-17T14:23:15.033Z,9.73
2023-01-17T14:25:43.881Z,9.53
2023-01-17T14:28:31.199Z,9.36
2023-01-17T14:31:00.388Z,9.23
2023-01-17T14:33:51.757Z,9.14
2023-01-17T14:36:27.845Z,9.03
2023-01-17T14:38:58.311Z,8.95
2023-01-17T14:41:28.165Z,8.89
2023-01-17T14:43:56.384Z,8.81
2023-01-17T14:46:27.148Z,8.71
2023-01-17T14:49:05.780Z,8.62
2023-01-17T14:51:37.295Z,8.53
2023-01-17T14:54:18.789Z,8.60
2023-01-17T14:56:46.740Z,8.74
2023-01-17T14:59:17.335Z,8.70
2023-01-17T15:02:06.001Z,8.59
2023-01-17T15:04:39.435Z,8.44
2023-01-17T15:07:14.725Z,8.32
2023-01-17T15:09:43.630Z,8.21
2023-01-17T15:12:14.496Z,8.09
2023-01-17T15:14:45.138Z,8.00
2023-01-17T15:17:20.155Z,7.93
2023-01-17T15:19:57.991Z,7.83
2023-01-17T15:22:26.481Z,7.72
2023-01-17T15:24:54.571Z,7.63
2023-01-17T15:27:24.609Z,7.55
2023-01-17T15:29:52.471Z,7.48
2023-01-17T15:32:24.351Z,7.44
2023-01-17T15:34:52.584Z,7.37
2023-01-17T15:37:29.142Z,7.29
2023-01-17T15:40:06.890Z,7.23
2023-01-17T15:42:36.597Z,7.15
2023-01-17T15:45:06.881Z,7.10
2023-01-17T15:47:38.544Z,7.06
2023-01-17T15:50:28.483Z,7.03
2023-01-17T15:53:01.045Z,7.01
2023-01-17T15:55:33.608Z,7.00
2023-01-17T15:58:02.208Z,7.00
2023-01-17T16:00:38.247Z,7.00
2023-01-17T16:03:29.209Z,6.99
2023-01-17T16:06:00.352Z,6.95
2023-01-17T16:08:38.890Z,6.92
2023-01-17T16:11:08.564Z,6.88
2023-01-17T16:13:43.210Z,6.82
2023-01-17T16:16:22.432Z,6.76
2023-01-17T16:19:02.785Z,6.70
2023-01-17T16:21:31.591Z,6.67
2023-01-17T16:23:59.973Z,6.64
2023-01-17T16:26:29.204Z,6.63
2023-01-17T16:28:57.120Z,6.63
2023-01-17T16:31:25.113Z,6.62
2023-01-17T16:33:53.066Z,6.59
2023-01-17T16:36:22.777Z,6.56
2023-01-17T16:38:51.652Z,6.53
2023-01-17T16:41:19.971Z,6.51
2023-01-17T16:43:57.682Z,6.46
2023-01-17T16:46:27.345Z,6.42
2023-01-17T16:48:55.892Z,6.36
2023-01-17T16:51:23.676Z,6.31
2023-01-17T16:53:51.451Z,6.24
2023-01-17T16:56:20.079Z,6.18
2023-01-17T16:58:48.099Z,6.11
2023-01-17T17:01:17.479Z,6.04
2023-01-17T17:03:46.026Z,5.98
2023-01-17T17:06:15.076Z,5.92
2023-01-17T17:08:43.510Z,5.85
2023-01-17T17:11:14.657Z,5.79
2023-01-17T17:13:44.593Z,5.72
2023-01-17T17:16:21.352Z,5.66
2023-01-17T17:18:58.557Z,5.62
2023-01-17T17:21:27.730Z,5.56
2023-01-17T17:23:59.090Z,5.49
2023-01-17T17:26:30.944Z,5.43
2023-01-17T17:28:58.985Z,5.36
2023-01-17T17:31:26.931Z,5.29
2023-01-17T17:33:58.391Z,5.21
2023-01-17T17:36:26.249Z,5.14
2023-01-17T17:38:55.561Z,5.08
2023-01-17T17:41:26.078Z,5.00
2023-01-17T17:43:54.429Z,4.90
2023-01-17T17:46:24.354Z,4.80
2023-01-17T17:48:52.109Z,4.72
2023-01-17T17:51:27.100Z,4.63
2023-01-17T17:53:56.575Z,4.56
2023-01-17T17:56:24.802Z,4.49
2023-01-17T17:58:54.642Z,4.41
2023-01-17T18:01:24.171Z,4.33
2023-01-17T18:03:55.351Z,4.26
2023-01-17T18:06:24.517Z,4.18
2023-01-17T18:08:52.985Z,4.08
2023-01-17T18:11:26.146Z,3.96
2023-01-17T18:13:55.757Z,3.86
2023-01-17T18:16:29.351Z,3.78
2023-01-17T18:18:58.752Z,3.74
2023-01-17T18:21:35.158Z,3.71
2023-01-17T18:24:06.285Z,3.68
2023-01-17T18:26:44.141Z,3.66
2023-01-17T18:29:15.705Z,3.65
2023-01-17T18:31:44.836Z,3.63
2023-01-17T18:34:15.760Z,3.63
2023-01-17T18:36:44.302Z,3.64
2023-01-17T18:39:14.732Z,3.63
2023-01-17T18:41:42.983Z,3.61
2023-01-17T18:44:11.149Z,3.58
2023-01-17T18:46:40.347Z,3.56
2023-01-17T18:49:11.008Z,3.54
2023-01-17T18:51:38.995Z,3.53
2023-01-17T18:54:08.762Z,3.53
2023-01-17T18:56:36.720Z,3.52
2023-01-17T18:59:06.253Z,3.50
2023-01-17T19:01:36.159Z,3.47
2023-01-17T19:04:05.265Z,3.46
2023-01-17T19:06:35.687Z,3.44
2023-01-17T19:09:05.462Z,3.44
2023-01-17T19:11:33.981Z,3.44
2023-01-17T19:14:02.777Z,3.41
2023-01-17T19:16:32.803Z,3.40
2023-01-17T19:19:03.848Z,3.40
2023-01-17T19:21:31.973Z,3.39
2023-01-17T19:23:59.806Z,3.38
2023-01-17T19:26:28.093Z,3.34
2023-01-17T19:28:57.756Z,3.31
2023-01-17T19:31:30.573Z,3.29
2023-01-17T19:33:59.716Z,3.26
2023-01-17T19:36:31.892Z,3.23
2023-01-17T19:39:04.884Z,3.22
2023-01-17T19:41:35.819Z,3.24
2023-01-17T19:44:08.510Z,3.23
2023-01-17T19:46:37.094Z,3.21
2023-01-17T19:49:06.949Z,3.18
2023-01-17T19:51:35.906Z,3.16
2023-01-17T19:54:06.368Z,3.14
2023-01-17T19:56:34.098Z,3.10
